Terminal Aerodrome Forecast
Issued by NWS

Home | Current Version | Previous Version | Text Only | Print | Product List | Glossary On
Versions: 1 2 3 4 5 6 7 8 9 10 11 12 13 14 15 16 17 18
448
FTUS44 KLZK 282340
TAFHRO
TAF
KHRO 282340Z 2900/2924 11010KT P6SM SCT030 BKN060
     FM290500 12010KT P6SM VCSH BKN020 BKN060
     FM290900 13012KT P6SM VCSH OVC015 PROB30 2909/2915 4SM -TSRA BR
      OVC010CB
     FM291500 15010G18KT P6SM VCTS OVC025CB=

USA.gov is the U.S. government's official web portal to all federal, state and local government web resources and services.